Time,TemperatureF,DewpointF,PressureIn,WindDirection,WindDirectionDegrees,WindSpeedMPH,WindSpeedGustMPH,Humidity,HourlyPrecipIn,Conditions,Clouds,dailyrainin,SoftwareType,DateUTC
2013-04-20 00:00:00,35.2,27.7,29.69,West,262,10.0,16.0,74,0.00,,,0.00,Wunderground v.1.15,2013-04-20 04:00:00,
2013-04-20 00:05:00,35.0,27.2,29.69,WSW,251,11.0,19.0,73,0.00,,,0.00,Wunderground v.1.15,2013-04-20 04:05:00,
2013-04-20 00:10:00,34.3,27.5,29.69,West,279,13.0,14.0,76,0.00,,,0.00,Wunderground v.1.15,2013-04-20 04:10:00,
2013-04-20 00:15:00,33.6,27.5,29.69,West,275,13.0,14.0,78,0.00,,,0.00,Wunderground v.1.15,2013-04-20 04:15:00,
2013-04-20 00:25:00,33.3,27.5,29.69,West,281,10.0,10.0,79,0.00,,,0.00,Wunderground v.1.15,2013-04-20 04:25:00,
2013-04-20 00:30:00,33.2,27.4,29.70,West,266,9.0,10.0,79,0.00,,,0.00,Wunderground v.1.15,2013-04-20 04:30:00,
2013-04-20 00:35:00,33.3,27.5,29.69,WSW,257,9.0,11.0,79,0.00,,,0.00,Wunderground v.1.15,2013-04-20 04:35:00,
2013-04-20 00:40:00,33.3,27.5,29.70,West,263,10.0,11.0,79,0.00,,,0.00,Wunderground v.1.15,2013-04-20 04:40:00,
2013-04-20 01:15:00,33.4,28.2,29.72,WSW,258,9.0,10.0,81,0.00,,,0.00,Wunderground v.1.15,2013-04-20 05:15:00,
2013-04-20 01:26:00,33.3,28.1,29.72,West,275,9.0,9.0,81,0.00,,,0.00,Wunderground v.1.15,2013-04-20 05:26:00,
2013-04-20 01:41:00,31.3,27.3,29.74,WNW,292,17.0,17.0,85,0.00,,,0.01,Wunderground v.1.15,2013-04-20 05:41:00,
2013-04-20 01:50:00,31.0,27.6,29.74,West,278,12.0,12.0,87,0.00,,,0.01,Wunderground v.1.15,2013-04-20 05:50:00,
2013-04-20 01:56:00,31.1,27.7,29.74,West,260,11.0,12.0,87,0.00,,,0.01,Wunderground v.1.15,2013-04-20 05:56:00,
2013-04-20 02:01:00,31.1,28.0,29.74,West,270,9.0,9.0,88,0.00,,,0.01,Wunderground v.1.15,2013-04-20 06:01:00,
2013-04-20 02:06:00,31.1,27.7,29.74,West,269,8.0,9.0,87,0.00,,,0.01,Wunderground v.1.15,2013-04-20 06:06:00,
2013-04-20 02:16:00,31.2,27.5,29.75,WSW,248,8.0,8.0,86,0.00,,,0.01,Wunderground v.1.15,2013-04-20 06:16:00,
2013-04-20 02:21:00,31.2,27.2,29.76,WNW,284,8.0,8.0,85,0.00,,,0.01,Wunderground v.1.15,2013-04-20 06:21:00,
2013-04-20 02:31:00,31.3,27.0,29.76,West,273,8.0,10.0,84,0.00,,,0.01,Wunderground v.1.15,2013-04-20 06:31:00,
2013-04-20 02:41:00,31.5,26.0,29.77,NW,311,10.0,10.0,80,0.00,,,0.01,Wunderground v.1.15,2013-04-20 06:41:00,
2013-04-20 02:46:00,31.6,25.8,29.77,West,259,9.0,12.0,79,0.00,,,0.01,Wunderground v.1.15,2013-04-20 06:46:00,
2013-04-20 03:16:00,31.3,21.3,29.78,West,261,12.0,14.0,66,0.00,,,0.01,Wunderground v.1.15,2013-04-20 07:16:00,
2013-04-20 03:51:00,30.8,20.8,29.81,West,271,11.0,15.0,66,0.00,,,0.01,Wunderground v.1.15,2013-04-20 07:51:00,
2013-04-20 04:11:00,29.8,21.9,29.82,West,277,18.0,18.0,72,0.00,,,0.01,Wunderground v.1.15,2013-04-20 08:11:00,
2013-04-20 04:21:00,29.7,22.1,29.83,West,279,13.0,22.0,73,0.00,,,0.01,Wunderground v.1.15,2013-04-20 08:21:00,
2013-04-20 04:36:00,29.1,22.2,29.84,West,267,17.0,22.0,75,0.00,,,0.01,Wunderground v.1.15,2013-04-20 08:36:00,
2013-04-20 04:41:00,28.8,22.5,29.85,West,277,15.0,15.0,77,0.00,,,0.01,Wunderground v.1.15,2013-04-20 08:41:00,
2013-04-20 05:01:00,29.0,20.8,29.85,WNW,293,15.0,15.0,71,0.00,,,0.01,Wunderground v.1.15,2013-04-20 09:01:00,
2013-04-20 05:20:00,28.8,20.6,29.88,West,276,17.0,17.0,71,0.00,,,0.01,Wunderground v.1.15,2013-04-20 09:20:00,
2013-04-20 05:36:00,28.7,20.8,29.89,WNW,299,16.0,16.0,72,0.00,,,0.01,Wunderground v.1.15,2013-04-20 09:36:00,
2013-04-20 05:41:00,28.5,21.3,29.89,West,279,15.0,15.0,74,0.00,,,0.01,Wunderground v.1.15,2013-04-20 09:41:00,
2013-04-20 05:56:00,28.2,21.3,29.90,West,279,14.0,14.0,75,0.00,,,0.01,Wunderground v.1.15,2013-04-20 09:56:00,
2013-04-20 06:05:00,28.1,21.2,29.91,West,279,14.0,14.0,75,0.00,,,0.01,Wunderground v.1.15,2013-04-20 10:05:00,
2013-04-20 06:11:00,28.1,20.9,29.91,West,270,14.0,15.0,74,0.00,,,0.01,Wunderground v.1.15,2013-04-20 10:11:00,
2013-04-20 06:56:00,28.1,20.9,29.95,WNW,299,15.0,17.0,74,0.00,,,0.01,Wunderground v.1.15,2013-04-20 10:56:00,
2013-04-20 07:06:00,28.1,21.2,29.95,WNW,285,13.0,14.0,75,0.00,,,0.01,Wunderground v.1.15,2013-04-20 11:06:00,
2013-04-20 07:20:00,28.1,20.2,29.97,WNW,287,14.0,18.0,72,0.00,,,0.01,Wunderground v.1.15,2013-04-20 11:20:00,
2013-04-20 07:31:00,28.3,19.8,29.97,WNW,282,15.0,19.0,70,0.00,,,0.01,Wunderground v.1.15,2013-04-20 11:31:00,
2013-04-20 07:36:00,28.4,19.9,29.97,West,277,15.0,15.0,70,0.00,,,0.01,Wunderground v.1.15,2013-04-20 11:36:00,
2013-04-20 08:00:00,28.8,19.9,29.99,WNW,292,14.0,15.0,69,0.00,,,0.01,Wunderground v.1.15,2013-04-20 12:00:00,
2013-04-20 08:15:00,29.0,20.1,30.00,West,270,15.0,15.0,69,0.00,,,0.01,Wunderground v.1.15,2013-04-20 12:15:00,
2013-04-20 08:21:00,29.0,19.8,30.00,WNW,297,14.0,15.0,68,0.00,,,0.01,Wunderground v.1.15,2013-04-20 12:21:00,
2013-04-20 08:31:00,29.3,19.7,30.02,WNW,297,14.0,16.0,67,0.00,,,0.01,Wunderground v.1.15,2013-04-20 12:31:00,
2013-04-20 09:01:00,29.5,19.5,30.03,NW,313,14.0,14.0,66,0.00,,,0.01,Wunderground v.1.15,2013-04-20 13:01:00,
2013-04-20 09:30:00,30.1,19.4,30.05,WNW,295,17.0,18.0,64,0.00,,,0.01,Wunderground v.1.15,2013-04-20 13:30:00,
2013-04-20 09:46:00,30.4,20.0,30.06,WNW,294,15.0,15.0,65,0.00,,,0.01,Wunderground v.1.15,2013-04-20 13:46:00,
2013-04-20 10:35:00,31.0,21.0,30.10,WNW,282,11.0,11.0,66,0.00,,,0.01,Wunderground v.1.15,2013-04-20 14:35:00,
2013-04-20 10:46:00,31.3,21.3,30.10,WNW,295,13.0,15.0,66,0.00,,,0.01,Wunderground v.1.15,2013-04-20 14:46:00,
2013-04-20 11:01:00,31.6,21.9,30.11,West,281,12.0,16.0,67,0.00,,,0.01,Wunderground v.1.15,2013-04-20 15:01:00,
2013-04-20 11:11:00,32.0,22.3,30.11,WNW,291,12.0,13.0,67,0.00,,,0.01,Wunderground v.1.15,2013-04-20 15:11:00,
2013-04-20 11:46:00,32.8,22.0,30.14,WNW,295,13.0,13.0,64,0.00,,,0.01,Wunderground v.1.15,2013-04-20 15:46:00,
2013-04-20 12:01:00,33.2,22.7,30.15,WNW,290,15.0,15.0,65,0.00,,,0.01,Wunderground v.1.15,2013-04-20 16:01:00,
2013-04-20 12:21:00,34.3,23.4,30.15,NW,306,15.0,15.0,64,0.00,,,0.01,Wunderground v.1.15,2013-04-20 16:21:00,
2013-04-20 12:31:00,34.0,22.0,30.16,WNW,294,12.0,19.0,61,0.00,,,0.01,Wunderground v.1.15,2013-04-20 16:31:00,
2013-04-20 12:41:00,34.2,23.7,30.16,WNW,296,14.0,14.0,65,0.00,,,0.01,Wunderground v.1.15,2013-04-20 16:41:00,
2013-04-20 12:51:00,34.1,23.2,30.16,WNW,298,12.0,17.0,64,0.00,,,0.01,Wunderground v.1.15,2013-04-20 16:51:00,
2013-04-20 13:11:00,34.5,24.3,30.17,West,260,12.0,12.0,66,0.00,,,0.01,Wunderground v.1.15,2013-04-20 17:11:00,
2013-04-20 13:26:00,34.5,23.6,30.17,West,281,13.0,14.0,64,0.00,,,0.01,Wunderground v.1.15,2013-04-20 17:26:00,
2013-04-20 13:46:00,35.4,25.2,30.18,West,276,12.0,14.0,66,0.00,,,0.01,Wunderground v.1.15,2013-04-20 17:46:00,
2013-04-20 14:00:00,35.0,24.4,30.18,West,277,14.0,14.0,65,0.00,,,0.01,Wunderground v.1.15,2013-04-20 18:00:00,
2013-04-20 14:11:00,34.5,23.9,30.19,West,281,14.0,16.0,65,0.00,,,0.01,Wunderground v.1.15,2013-04-20 18:11:00,
2013-04-20 14:21:00,35.3,23.6,30.20,WNW,289,13.0,16.0,62,0.00,,,0.01,Wunderground v.1.15,2013-04-20 18:21:00,
2013-04-20 14:31:00,35.5,24.1,30.20,WNW,284,14.0,15.0,63,0.00,,,0.01,Wunderground v.1.15,2013-04-20 18:31:00,
2013-04-20 14:46:00,35.9,23.0,30.21,WNW,298,11.0,12.0,59,0.00,,,0.01,Wunderground v.1.15,2013-04-20 18:46:00,
2013-04-20 15:26:00,36.2,24.4,30.23,West,274,11.0,11.0,62,0.00,,,0.01,Wunderground v.1.15,2013-04-20 19:26:00,
2013-04-20 16:10:00,36.3,24.5,30.25,WNW,289,9.0,11.0,62,0.00,,,0.01,Wunderground v.1.15,2013-04-20 20:10:00,
2013-04-20 16:55:00,36.4,24.2,30.26,West,261,10.0,10.0,61,0.00,,,0.01,Wunderground v.1.15,2013-04-20 20:55:00,
2013-04-20 17:01:00,36.2,25.2,30.27,WNW,301,11.0,11.0,64,0.00,,,0.01,Wunderground v.1.15,2013-04-20 21:01:00,
2013-04-20 17:11:00,36.0,25.0,30.27,NW,317,11.0,11.0,64,0.00,,,0.01,Wunderground v.1.15,2013-04-20 21:11:00,
2013-04-20 17:25:00,36.5,23.5,30.28,West,280,11.0,12.0,59,0.00,,,0.01,Wunderground v.1.15,2013-04-20 21:25:00,
2013-04-20 17:31:00,36.5,23.9,30.28,WNW,292,13.0,15.0,60,0.00,,,0.01,Wunderground v.1.15,2013-04-20 21:31:00,
2013-04-20 17:56:00,36.3,24.1,30.29,WNW,296,10.0,10.0,61,0.00,,,0.01,Wunderground v.1.15,2013-04-20 21:56:00,
2013-04-20 18:06:00,36.2,24.0,30.30,WNW,298,9.0,9.0,61,0.00,,,0.01,Wunderground v.1.15,2013-04-20 22:06:00,
2013-04-20 18:46:00,37.2,24.6,30.32,West,280,8.0,8.0,60,0.00,,,0.01,Wunderground v.1.15,2013-04-20 22:46:00,
2013-04-20 19:01:00,37.4,23.5,30.32,WNW,298,8.0,9.0,57,0.00,,,0.01,Wunderground v.1.15,2013-04-20 23:01:00,
2013-04-20 19:11:00,36.7,23.3,30.32,WNW,292,9.0,10.0,58,0.00,,,0.01,Wunderground v.1.15,2013-04-20 23:11:00,
2013-04-20 19:16:00,36.4,23.4,30.32,WNW,298,8.0,10.0,59,0.00,,,0.01,Wunderground v.1.15,2013-04-20 23:16:00,
2013-04-20 19:21:00,36.3,22.5,30.32,WNW,287,8.0,10.0,57,0.00,,,0.01,Wunderground v.1.15,2013-04-20 23:21:00,
2013-04-20 19:31:00,36.1,23.9,30.33,WNW,300,7.0,7.0,61,0.00,,,0.01,Wunderground v.1.15,2013-04-20 23:31:00,
2013-04-20 19:41:00,36.4,23.8,30.33,WNW,298,6.0,10.0,60,0.00,,,0.01,Wunderground v.1.15,2013-04-20 23:41:00,
2013-04-20 19:51:00,36.2,23.6,30.33,WNW,298,6.0,6.0,60,0.00,,,0.01,Wunderground v.1.15,2013-04-20 23:51:00,
2013-04-20 19:56:00,36.2,24.0,30.34,NW,306,5.0,6.0,61,0.00,,,0.01,Wunderground v.1.15,2013-04-20 23:56:00,
2013-04-20 20:06:00,35.8,23.7,30.34,WNW,300,5.0,5.0,61,0.00,,,0.01,Wunderground v.1.15,2013-04-21 00:06:00,
2013-04-20 20:11:00,35.6,23.9,30.34,WNW,301,5.0,5.0,62,0.00,,,0.01,Wunderground v.1.15,2013-04-21 00:11:00,
2013-04-20 20:16:00,35.4,23.7,30.35,NW,304,4.0,5.0,62,0.00,,,0.01,Wunderground v.1.15,2013-04-21 00:16:00,
2013-04-20 20:31:00,35.0,24.0,30.36,WNW,298,4.0,4.0,64,0.00,,,0.01,Wunderground v.1.15,2013-04-21 00:31:00,
2013-04-20 20:36:00,34.8,24.6,30.36,WNW,298,3.0,4.0,66,0.00,,,0.01,Wunderground v.1.15,2013-04-21 00:36:00,
2013-04-20 20:46:00,34.6,24.8,30.37,WNW,298,2.0,2.0,67,0.00,,,0.01,Wunderground v.1.15,2013-04-21 00:46:00,
2013-04-20 20:56:00,34.6,24.8,30.37,WNW,298,1.0,2.0,67,0.00,,,0.01,Wunderground v.1.15,2013-04-21 00:56:00,
2013-04-20 21:01:00,34.5,25.0,30.37,WNW,298,1.0,1.0,68,0.00,,,0.01,Wunderground v.1.15,2013-04-21 01:01:00,
2013-04-20 21:06:00,34.5,24.3,30.37,WNW,298,1.0,1.0,66,0.00,,,0.01,Wunderground v.1.15,2013-04-21 01:06:00,
2013-04-20 21:12:00,34.4,24.2,30.38,WNW,298,0.0,1.0,66,0.00,,,0.01,Wunderground v.1.15,2013-04-21 01:12:00,
2013-04-20 21:31:00,34.5,22.8,30.39,WNW,298,0.0,0.0,62,0.00,,,0.01,Wunderground v.1.15,2013-04-21 01:31:00,
2013-04-20 21:46:00,34.4,23.8,30.40,WNW,298,2.0,2.0,65,0.00,,,0.01,Wunderground v.1.15,2013-04-21 01:46:00,
2013-04-20 22:06:00,33.5,25.1,30.41,WNW,298,0.0,0.0,71,0.00,,,0.01,Wunderground v.1.15,2013-04-21 02:06:00,
2013-04-20 22:16:00,33.2,25.1,30.41,WNW,298,0.0,0.0,72,0.00,,,0.01,Wunderground v.1.15,2013-04-21 02:16:00,
2013-04-20 22:31:00,33.2,24.1,30.41,WNW,298,1.0,2.0,69,0.00,,,0.01,Wunderground v.1.15,2013-04-21 02:31:00,
2013-04-20 22:41:00,33.2,23.8,30.42,WNW,298,1.0,1.0,68,0.00,,,0.01,Wunderground v.1.15,2013-04-21 02:41:00,
2013-04-20 23:47:00,31.1,22.8,30.44,NW,317,3.0,3.0,71,0.00,,,0.01,Wunderground v.1.15,2013-04-21 03:47:00,
2013-04-20 23:56:00,31.0,22.4,30.45,NW,309,1.0,2.0,70,0.00,,,0.01,Wunderground v.1.15,2013-04-21 03:56:00,